sensor_id;sensor_type;location;lat;lon;timestamp;pressure;altitude;pressure_sealevel;temperature
48854;BMP280;34673;52.808;17.856;2023-06-05T00:00:01;101083.38;;;13.84
48854;BMP280;34673;52.808;17.856;2023-06-05T00:02:37;101092.06;;;13.83
48854;BMP280;34673;52.808;17.856;2023-06-05T00:05:05;101087.72;;;13.85
48854;BMP280;34673;52.808;17.856;2023-06-05T00:07:36;101083.34;;;13.87
48854;BMP280;34673;52.808;17.856;2023-06-05T00:10:07;101086.78;;;13.89
48854;BMP280;34673;52.808;17.856;2023-06-05T00:12:35;101086.84;;;13.83
48854;BMP280;34673;52.808;17.856;2023-06-05T00:15:04;101089.47;;;13.83
48854;BMP280;34673;52.808;17.856;2023-06-05T00:17:32;101089.53;;;13.77
48854;BMP280;34673;52.808;17.856;2023-06-05T00:19:59;101085.19;;;13.75
48854;BMP280;34673;52.808;17.856;2023-06-05T00:22:27;101087.84;;;13.69
48854;BMP280;34673;52.808;17.856;2023-06-05T00:24:55;101080.16;;;13.60
48854;BMP280;34673;52.808;17.856;2023-06-05T00:27:22;101089.66;;;13.61
48854;BMP280;34673;52.808;17.856;2023-06-05T00:29:49;101080.19;;;13.54
48854;BMP280;34673;52.808;17.856;2023-06-05T00:32:17;101085.38;;;13.54
48854;BMP280;34673;52.808;17.856;2023-06-05T00:34:44;101096.66;;;13.55
48854;BMP280;34673;52.808;17.856;2023-06-05T00:37:11;101097.53;;;13.50
48854;BMP280;34673;52.808;17.856;2023-06-05T00:39:40;101095.81;;;13.51
48854;BMP280;34673;52.808;17.856;2023-06-05T00:42:08;101095.84;;;13.48
48854;BMP280;34673;52.808;17.856;2023-06-05T00:44:39;101097.59;;;13.43
48854;BMP280;34673;52.808;17.856;2023-06-05T00:47:07;101095.06;;;13.37
48854;BMP280;34673;52.808;17.856;2023-06-05T00:49:34;101087.34;;;13.27
48854;BMP280;34673;52.808;17.856;2023-06-05T00:52:02;101093.41;;;13.22
48854;BMP280;34673;52.808;17.856;2023-06-05T00:54:29;101092.59;;;13.15
48854;BMP280;34673;52.808;17.856;2023-06-05T00:56:56;101090.06;;;13.00
48854;BMP280;34673;52.808;17.856;2023-06-05T00:59:24;101094.44;;;12.98
48854;BMP280;34673;52.808;17.856;2023-06-05T01:01:51;101090.97;;;12.96
48854;BMP280;34673;52.808;17.856;2023-06-05T01:04:20;101092.75;;;12.88
48854;BMP280;34673;52.808;17.856;2023-06-05T01:06:47;101098.84;;;12.80
48854;BMP280;34673;52.808;17.856;2023-06-05T01:09:14;101093.69;;;12.73
48854;BMP280;34673;52.808;17.856;2023-06-05T01:11:50;101085.97;;;12.65
48854;BMP280;34673;52.808;17.856;2023-06-05T01:14:24;101083.38;;;12.63
48854;BMP280;34673;52.808;17.856;2023-06-05T01:16:56;101087.69;;;12.61
48854;BMP280;34673;52.808;17.856;2023-06-05T01:19:24;101086.00;;;12.53
48854;BMP280;34673;52.808;17.856;2023-06-05T01:21:52;101082.53;;;12.54
48854;BMP280;34673;52.808;17.856;2023-06-05T01:24:19;101089.50;;;12.49
48854;BMP280;34673;52.808;17.856;2023-06-05T01:35:15;101082.63;;;12.38
48854;BMP280;34673;52.808;17.856;2023-06-05T01:37:47;101082.63;;;12.38
48854;BMP280;34673;52.808;17.856;2023-06-05T01:40:22;101078.31;;;12.31
48854;BMP280;34673;52.808;17.856;2023-06-05T01:42:52;101093.84;;;12.37
48854;BMP280;34673;52.808;17.856;2023-06-05T01:45:21;101096.47;;;12.40
48854;BMP280;34673;52.808;17.856;2023-06-05T01:47:49;101091.25;;;12.37
48854;BMP280;34673;52.808;17.856;2023-06-05T01:50:17;101087.81;;;12.38
48854;BMP280;34673;52.808;17.856;2023-06-05T01:52:45;101084.38;;;12.33
48854;BMP280;34673;52.808;17.856;2023-06-05T01:55:21;101086.13;;;12.25
48854;BMP280;34673;52.808;17.856;2023-06-05T01:57:51;101083.56;;;12.14
48854;BMP280;34673;52.808;17.856;2023-06-05T02:00:18;101082.72;;;12.11
48854;BMP280;34673;52.808;17.856;2023-06-05T02:02:47;101090.47;;;12.05
48854;BMP280;34673;52.808;17.856;2023-06-05T02:05:16;101087.94;;;11.95
48854;BMP280;34673;52.808;17.856;2023-06-05T02:07:45;101089.66;;;11.93
48854;BMP280;34673;52.808;17.856;2023-06-05T02:10:33;101090.53;;;11.89
48854;BMP280;34673;52.808;17.856;2023-06-05T02:13:01;101084.47;;;11.81
48854;BMP280;34673;52.808;17.856;2023-06-05T02:15:28;101079.28;;;11.75
48854;BMP280;34673;52.808;17.856;2023-06-05T02:18:00;101086.22;;;11.73
48854;BMP280;34673;52.808;17.856;2023-06-05T02:20:27;101086.19;;;11.64
48854;BMP280;34673;52.808;17.856;2023-06-05T02:22:55;101075.84;;;11.61
48854;BMP280;34673;52.808;17.856;2023-06-05T02:25:22;101074.13;;;11.53
48854;BMP280;34673;52.808;17.856;2023-06-05T02:27:54;101072.38;;;11.52
48854;BMP280;34673;52.808;17.856;2023-06-05T02:30:21;101067.22;;;11.46
48854;BMP280;34673;52.808;17.856;2023-06-05T02:32:50;101074.97;;;11.48
48854;BMP280;34673;52.808;17.856;2023-06-05T02:35:24;101079.28;;;11.44
48854;BMP280;34673;52.808;17.856;2023-06-05T02:37:51;101077.59;;;11.43
48854;BMP280;34673;52.808;17.856;2023-06-05T02:40:19;101075.84;;;11.39
48854;BMP280;34673;52.808;17.856;2023-06-05T02:42:47;101084.50;;;11.38
48854;BMP280;34673;52.808;17.856;2023-06-05T02:45:14;101078.44;;;11.36
48854;BMP280;34673;52.808;17.856;2023-06-05T02:47:42;101075.84;;;11.33
48854;BMP280;34673;52.808;17.856;2023-06-05T02:50:09;101074.09;;;11.29
48854;BMP280;34673;52.808;17.856;2023-06-05T02:52:40;101068.94;;;11.23
48854;BMP280;34673;52.808;17.856;2023-06-05T02:55:13;101070.69;;;11.24
48854;BMP280;34673;52.808;17.856;2023-06-05T02:57:42;101070.69;;;11.24
48854;BMP280;34673;52.808;17.856;2023-06-05T03:00:14;101073.22;;;11.21
48854;BMP280;34673;52.808;17.856;2023-06-05T03:02:49;101075.81;;;11.21
48854;BMP280;34673;52.808;17.856;2023-06-05T03:05:20;101077.56;;;11.22
48854;BMP280;34673;52.808;17.856;2023-06-05T03:07:57;101065.50;;;11.24
48854;BMP280;34673;52.808;17.856;2023-06-05T03:10:24;101070.69;;;11.24
48854;BMP280;34673;52.808;17.856;2023-06-05T03:12:51;101068.94;;;11.24
48854;BMP280;34673;52.808;17.856;2023-06-05T03:15:19;101072.38;;;11.28
48854;BMP280;34673;52.808;17.856;2023-06-05T03:17:48;101070.66;;;11.30
48854;BMP280;34673;52.808;17.856;2023-06-05T03:20:18;101070.66;;;11.33
48854;BMP280;34673;52.808;17.856;2023-06-05T03:22:46;101074.13;;;11.32
48854;BMP280;34673;52.808;17.856;2023-06-05T03:25:14;101070.66;;;11.33
48854;BMP280;34673;52.808;17.856;2023-06-05T03:27:43;101073.25;;;11.38
48854;BMP280;34673;52.808;17.856;2023-06-05T03:30:12;101072.41;;;11.43
48854;BMP280;34673;52.808;17.856;2023-06-05T03:32:47;101073.25;;;11.45
48854;BMP280;34673;52.808;17.856;2023-06-05T03:35:14;101072.38;;;11.49
48854;BMP280;34673;52.808;17.856;2023-06-05T03:37:42;101075.84;;;11.54
48854;BMP280;34673;52.808;17.856;2023-06-05T03:40:10;101077.56;;;11.59
48854;BMP280;34673;52.808;17.856;2023-06-05T03:42:39;101068.94;;;11.60
48854;BMP280;34673;52.808;17.856;2023-06-05T03:45:07;101075.81;;;11.67
48854;BMP280;34673;52.808;17.856;2023-06-05T03:47:37;101081.03;;;11.70
48854;BMP280;34673;52.808;17.856;2023-06-05T03:50:07;101077.56;;;11.74
48854;BMP280;34673;52.808;17.856;2023-06-05T03:52:38;101088.78;;;11.81
48854;BMP280;34673;52.808;17.856;2023-06-05T03:55:07;101079.28;;;11.84
48854;BMP280;34673;52.808;17.856;2023-06-05T03:57:38;101084.47;;;12.03
48854;BMP280;34673;52.808;17.856;2023-06-05T04:00:07;101080.97;;;12.16
48854;BMP280;34673;52.808;17.856;2023-06-05T04:02:50;101074.91;;;12.22
48854;BMP280;34673;52.808;17.856;2023-06-05T04:05:18;101077.47;;;12.26
48854;BMP280;34673;52.808;17.856;2023-06-05T04:07:45;101070.53;;;12.31
48854;BMP280;34673;52.808;17.856;2023-06-05T04:10:13;101067.09;;;12.32
48854;BMP280;34673;52.808;17.856;2023-06-05T04:12:40;101080.00;;;12.45
48854;BMP280;34673;52.808;17.856;2023-06-05T04:15:08;101060.13;;;12.44
48854;BMP280;34673;52.808;17.856;2023-06-05T04:17:37;101074.69;;;12.64
48854;BMP280;34673;52.808;17.856;2023-06-05T04:20:07;101069.47;;;12.78
48854;BMP280;34673;52.808;17.856;2023-06-05T04:22:37;101077.94;;;13.02
48854;BMP280;34673;52.808;17.856;2023-06-05T04:25:04;101078.72;;;13.18
48854;BMP280;34673;52.808;17.856;2023-06-05T04:27:32;101077.78;;;13.29
48854;BMP280;34673;52.808;17.856;2023-06-05T04:29:59;101076.84;;;13.40
48854;BMP280;34673;52.808;17.856;2023-06-05T04:32:27;101079.38;;;13.46
48854;BMP280;34673;52.808;17.856;2023-06-05T04:34:54;101079.31;;;13.53
48854;BMP280;34673;52.808;17.856;2023-06-05T04:37:21;101079.25;;;13.63
48854;BMP280;34673;52.808;17.856;2023-06-05T04:39:48;101081.75;;;13.70
48854;BMP280;34673;52.808;17.856;2023-06-05T04:42:15;101078.22;;;13.81
48854;BMP280;34673;52.808;17.856;2023-06-05T04:44:56;101073.75;;;13.92
48854;BMP280;34673;52.808;17.856;2023-06-05T04:47:24;101072.78;;;14.02
48854;BMP280;34673;52.808;17.856;2023-06-05T04:49:52;101076.16;;;14.10
48854;BMP280;34673;52.808;17.856;2023-06-05T04:52:21;101070.88;;;14.16
48854;BMP280;34673;52.808;17.856;2023-06-05T04:54:50;101076.91;;;14.23
48854;BMP280;34673;52.808;17.856;2023-06-05T04:57:18;101075.91;;;14.32
48854;BMP280;34673;52.808;17.856;2023-06-05T04:59:46;101078.44;;;14.39
48854;BMP280;34673;52.808;17.856;2023-06-05T05:02:15;101067.03;;;14.48
48854;BMP280;34673;52.808;17.856;2023-06-05T05:04:44;101063.53;;;14.55
48854;BMP280;34673;52.808;17.856;2023-06-05T05:07:11;101069.53;;;14.60
48854;BMP280;34673;52.808;17.856;2023-06-05T05:09:44;101073.75;;;14.68
48854;BMP280;34673;52.808;17.856;2023-06-05T05:12:12;101071.91;;;14.76
48854;BMP280;34673;52.808;17.856;2023-06-05T05:14:39;101070.06;;;14.84
48854;BMP280;34673;52.808;17.856;2023-06-05T05:17:11;101065.63;;;14.91
48854;BMP280;34673;52.808;17.856;2023-06-05T05:19:41;101062.94;;;14.95
48854;BMP280;34673;52.808;17.856;2023-06-05T05:22:08;101067.13;;;15.05
48854;BMP280;34673;52.808;17.856;2023-06-05T05:24:35;101067.88;;;15.14
48854;BMP280;34673;52.808;17.856;2023-06-05T05:27:03;101057.34;;;15.23
48854;BMP280;34673;52.808;17.856;2023-06-05T05:29:30;101060.63;;;15.34
48854;BMP280;34673;52.808;17.856;2023-06-05T05:32:01;101067.44;;;15.41
48854;BMP280;34673;52.808;17.856;2023-06-05T05:34:29;101073.31;;;15.56
48854;BMP280;34673;52.808;17.856;2023-06-05T05:36:57;101077.44;;;15.66
48854;BMP280;34673;52.808;17.856;2023-06-05T05:39:24;101079.09;;;15.73
48854;BMP280;34673;52.808;17.856;2023-06-05T05:41:51;101075.44;;;15.83
48854;BMP280;34673;52.808;17.856;2023-06-05T05:44:18;101070.03;;;15.92
48854;BMP280;34673;52.808;17.856;2023-06-05T05:46:46;101069.88;;;16.02
48854;BMP280;34673;52.808;17.856;2023-06-05T05:49:14;101069.69;;;16.11
48854;BMP280;34673;52.808;17.856;2023-06-05T05:51:41;101070.34;;;16.22
48854;BMP280;34673;52.808;17.856;2023-06-05T05:54:08;101068.34;;;16.35
48854;BMP280;34673;52.808;17.856;2023-06-05T05:56:35;101069.81;;;16.48
48854;BMP280;34673;52.808;17.856;2023-06-05T05:59:03;101077.28;;;16.65
48854;BMP280;34673;52.808;17.856;2023-06-05T06:01:30;101067.53;;;16.73
48854;BMP280;34673;52.808;17.856;2023-06-05T06:03:59;101072.34;;;16.93
48854;BMP280;34673;52.808;17.856;2023-06-05T06:06:26;101070.22;;;17.09
48854;BMP280;34673;52.808;17.856;2023-06-05T06:08:54;101065.69;;;17.17
48854;BMP280;34673;52.808;17.856;2023-06-05T06:11:21;101080.06;;;17.35
48854;BMP280;34673;52.808;17.856;2023-06-05T06:13:48;101075.31;;;17.51
48854;BMP280;34673;52.808;17.856;2023-06-05T06:16:16;101083.59;;;17.68
48854;BMP280;34673;52.808;17.856;2023-06-05T06:18:43;101073.56;;;17.86
48854;BMP280;34673;52.808;17.856;2023-06-05T06:21:11;101077.41;;;18.05
48854;BMP280;34673;52.808;17.856;2023-06-05T06:23:38;101079.47;;;18.25
48854;BMP280;34673;52.808;17.856;2023-06-05T06:26:05;101078.00;;;18.46
48854;BMP280;34673;52.808;17.856;2023-06-05T06:28:33;101077.50;;;18.63
48854;BMP280;34673;52.808;17.856;2023-06-05T06:31:00;101080.25;;;18.88
48854;BMP280;34673;52.808;17.856;2023-06-05T06:33:27;101077.91;;;19.07
48854;BMP280;34673;52.808;17.856;2023-06-05T06:35:56;101080.69;;;19.29
48854;BMP280;34673;52.808;17.856;2023-06-05T06:38:25;101074.75;;;19.51
48854;BMP280;34673;52.808;17.856;2023-06-05T06:40:58;101082.72;;;19.74
48854;BMP280;34673;52.808;17.856;2023-06-05T06:43:25;101082.84;;;19.96
48854;BMP280;34673;52.808;17.856;2023-06-05T06:46:01;101084.63;;;20.19
48854;BMP280;34673;52.808;17.856;2023-06-05T06:48:29;101080.31;;;20.42
48854;BMP280;34673;52.808;17.856;2023-06-05T06:50:56;101083.06;;;20.62
48854;BMP280;34673;52.808;17.856;2023-06-05T06:53:23;101087.38;;;20.87
48854;BMP280;34673;52.808;17.856;2023-06-05T06:55:51;101090.34;;;21.01
48854;BMP280;34673;52.808;17.856;2023-06-05T06:58:18;101084.56;;;21.13
48854;BMP280;34673;52.808;17.856;2023-06-05T07:00:45;101087.38;;;21.31
48854;BMP280;34673;52.808;17.856;2023-06-05T07:03:14;101092.03;;;21.46
48854;BMP280;34673;52.808;17.856;2023-06-05T07:05:41;101081.75;;;21.60
48854;BMP280;34673;52.808;17.856;2023-06-05T07:08:08;101078.63;;;21.73
48854;BMP280;34673;52.808;17.856;2023-06-05T07:10:36;101071.91;;;21.86
48854;BMP280;34673;52.808;17.856;2023-06-05T07:13:03;101082.16;;;22.12
48854;BMP280;34673;52.808;17.856;2023-06-05T07:15:30;101071.94;;;22.25
48854;BMP280;34673;52.808;17.856;2023-06-05T07:17:58;101072.09;;;22.41
48854;BMP280;34673;52.808;17.856;2023-06-05T07:20:25;101073.88;;;22.60
48854;BMP280;34673;52.808;17.856;2023-06-05T07:22:52;101072.22;;;22.76
48854;BMP280;34673;52.808;17.856;2023-06-05T07:25:19;101061.84;;;22.90
48854;BMP280;34673;52.808;17.856;2023-06-05T07:27:49;101073.25;;;23.10
48854;BMP280;34673;52.808;17.856;2023-06-05T07:30:17;101077.94;;;23.22
48854;BMP280;34673;52.808;17.856;2023-06-05T07:32:44;101084.41;;;23.34
48854;BMP280;34673;52.808;17.856;2023-06-05T07:35:12;101067.25;;;23.42
48854;BMP280;34673;52.808;17.856;2023-06-05T07:37:41;101081.53;;;23.56
48854;BMP280;34673;52.808;17.856;2023-06-05T07:40:09;101079.59;;;23.59
48854;BMP280;34673;52.808;17.856;2023-06-05T07:42:36;101079.97;;;23.69
48854;BMP280;34673;52.808;17.856;2023-06-05T07:45:04;101079.84;;;23.72
48854;BMP280;34673;52.808;17.856;2023-06-05T07:47:32;101079.38;;;23.81
48854;BMP280;34673;52.808;17.856;2023-06-05T07:50:01;101070.66;;;23.97
48854;BMP280;34673;52.808;17.856;2023-06-05T07:52:31;101074.78;;;24.18
48854;BMP280;34673;52.808;17.856;2023-06-05T07:54:58;101073.63;;;24.40
48854;BMP280;34673;52.808;17.856;2023-06-05T07:57:25;101065.06;;;24.52
48854;BMP280;34673;52.808;17.856;2023-06-05T07:59:54;101077.34;;;24.69
48854;BMP280;34673;52.808;17.856;2023-06-05T08:02:21;101077.34;;;24.85
48854;BMP280;34673;52.808;17.856;2023-06-05T08:04:50;101071.34;;;24.97
48854;BMP280;34673;52.808;17.856;2023-06-05T08:07:17;101070.59;;;25.11
48854;BMP280;34673;52.808;17.856;2023-06-05T08:09:44;101075.31;;;25.22
48854;BMP280;34673;52.808;17.856;2023-06-05T08:12:11;101070.91;;;25.05
48854;BMP280;34673;52.808;17.856;2023-06-05T08:14:38;101074.41;;;25.05
48854;BMP280;34673;52.808;17.856;2023-06-05T08:17:06;101075.78;;;25.12
48854;BMP280;34673;52.808;17.856;2023-06-05T08:19:33;101080.75;;;25.18
48854;BMP280;34673;52.808;17.856;2023-06-05T08:22:00;101076.47;;;25.16
48854;BMP280;34673;52.808;17.856;2023-06-05T08:24:27;101074.75;;;25.31
48854;BMP280;34673;52.808;17.856;2023-06-05T08:26:55;101074.03;;;25.43
48854;BMP280;34673;52.808;17.856;2023-06-05T08:29:23;101069.88;;;25.53
48854;BMP280;34673;52.808;17.856;2023-06-05T08:31:50;101080.63;;;25.66
48854;BMP280;34673;52.808;17.856;2023-06-05T08:34:17;101065.75;;;25.63
48854;BMP280;34673;52.808;17.856;2023-06-05T08:36:44;101072.56;;;25.68
48854;BMP280;34673;52.808;17.856;2023-06-05T08:39:11;101066.72;;;25.77
48854;BMP280;34673;52.808;17.856;2023-06-05T08:41:39;101069.41;;;25.91
48854;BMP280;34673;52.808;17.856;2023-06-05T08:44:11;101066.19;;;25.86
48854;BMP280;34673;52.808;17.856;2023-06-05T08:46:39;101064.13;;;25.91
48854;BMP280;34673;52.808;17.856;2023-06-05T08:49:10;101067.16;;;25.99
48854;BMP280;34673;52.808;17.856;2023-06-05T08:51:38;101062.16;;;26.09
48854;BMP280;34673;52.808;17.856;2023-06-05T08:54:08;101055.38;;;26.32
48854;BMP280;34673;52.808;17.856;2023-06-05T08:56:41;101048.16;;;26.48
48854;BMP280;34673;52.808;17.856;2023-06-05T08:59:10;101054.22;;;26.65
48854;BMP280;34673;52.808;17.856;2023-06-05T09:01:42;101061.19;;;26.80
48854;BMP280;34673;52.808;17.856;2023-06-05T09:04:11;101051.56;;;26.79
48854;BMP280;34673;52.808;17.856;2023-06-05T09:06:38;101057.22;;;26.73
48854;BMP280;34673;52.808;17.856;2023-06-05T09:09:07;101059.16;;;26.71
48854;BMP280;34673;52.808;17.856;2023-06-05T09:11:34;101053.78;;;26.85
48854;BMP280;34673;52.808;17.856;2023-06-05T09:14:03;101052.69;;;27.02
48854;BMP280;34673;52.808;17.856;2023-06-05T09:16:43;101059.38;;;27.08
48854;BMP280;34673;52.808;17.856;2023-06-05T09:19:11;101058.25;;;27.12
48854;BMP280;34673;52.808;17.856;2023-06-05T09:21:39;101064.88;;;27.19
48854;BMP280;34673;52.808;17.856;2023-06-05T09:24:11;101059.84;;;27.14
48854;BMP280;34673;52.808;17.856;2023-06-05T09:26:59;101057.78;;;27.05
48854;BMP280;34673;52.808;17.856;2023-06-05T09:29:32;101052.56;;;27.18
48854;BMP280;34673;52.808;17.856;2023-06-05T09:32:01;101047.91;;;27.34
48854;BMP280;34673;52.808;17.856;2023-06-05T09:34:31;101048.78;;;27.48
48854;BMP280;34673;52.808;17.856;2023-06-05T09:37:08;101044.13;;;27.64
48854;BMP280;34673;52.808;17.856;2023-06-05T09:39:37;101052.94;;;27.77
48854;BMP280;34673;52.808;17.856;2023-06-05T09:42:05;101035.63;;;27.84
48854;BMP280;34673;52.808;17.856;2023-06-05T09:44:34;101042.97;;;27.94
48854;BMP280;34673;52.808;17.856;2023-06-05T09:47:06;101043.03;;;27.79
48854;BMP280;34673;52.808;17.856;2023-06-05T09:52:12;101039.47;;;27.80
48854;BMP280;34673;52.808;17.856;2023-06-05T09:54:41;101036.69;;;27.95
48854;BMP280;34673;52.808;17.856;2023-06-05T09:57:13;101030.22;;;27.99
48854;BMP280;34673;52.808;17.856;2023-06-05T09:59:54;101041.25;;;27.93
48854;BMP280;34673;52.808;17.856;2023-06-05T10:02:30;101038.59;;;27.93
48854;BMP280;34673;52.808;17.856;2023-06-05T10:05:01;101028.38;;;28.12
48854;BMP280;34673;52.808;17.856;2023-06-05T10:07:31;101024.00;;;28.24
48854;BMP280;34673;52.808;17.856;2023-06-05T10:10:10;101016.03;;;28.11
48854;BMP280;34673;52.808;17.856;2023-06-05T10:12:38;101019.28;;;27.91
48854;BMP280;34673;52.808;17.856;2023-06-05T10:15:07;101010.75;;;27.86
48854;BMP280;34673;52.808;17.856;2023-06-05T10:17:37;101010.53;;;27.89
48854;BMP280;34673;52.808;17.856;2023-06-05T10:20:06;101017.13;;;27.96
48854;BMP280;34673;52.808;17.856;2023-06-05T10:22:36;101006.69;;;27.93
48854;BMP280;34673;52.808;17.856;2023-06-05T10:25:06;101004.78;;;27.95
48854;BMP280;34673;52.808;17.856;2023-06-05T10:36:14;101003.78;;;28.21
48854;BMP280;34673;52.808;17.856;2023-06-05T10:38:47;101003.25;;;28.16
48854;BMP280;34673;52.808;17.856;2023-06-05T10:41:17;101005.91;;;28.16
48854;BMP280;34673;52.808;17.856;2023-06-05T10:43:45;100999.63;;;28.17
48854;BMP280;34673;52.808;17.856;2023-06-05T10:49:12;101000.44;;;28.31
48854;BMP280;34673;52.808;17.856;2023-06-05T10:51:43;100997.47;;;28.22
48854;BMP280;34673;52.808;17.856;2023-06-05T10:54:13;100993.44;;;28.17
48854;BMP280;34673;52.808;17.856;2023-06-05T10:57:03;100992.63;;;28.16
48854;BMP280;34673;52.808;17.856;2023-06-05T10:59:34;100995.34;;;28.27
48854;BMP280;34673;52.808;17.856;2023-06-05T11:07:30;100991.94;;;28.25
48854;BMP280;34673;52.808;17.856;2023-06-05T11:15:09;100986.59;;;27.89
48854;BMP280;34673;52.808;17.856;2023-06-05T11:17:39;100984.78;;;28.02
48854;BMP280;34673;52.808;17.856;2023-06-05T11:20:07;100980.56;;;28.23
48854;BMP280;34673;52.808;17.856;2023-06-05T11:27:56;100985.81;;;28.12
48854;BMP280;34673;52.808;17.856;2023-06-05T11:30:28;100975.81;;;28.03
48854;BMP280;34673;52.808;17.856;2023-06-05T11:33:13;100981.88;;;27.79
48854;BMP280;34673;52.808;17.856;2023-06-05T11:35:46;100977.78;;;27.50
48854;BMP280;34673;52.808;17.856;2023-06-05T11:38:20;100986.06;;;27.32
48854;BMP280;34673;52.808;17.856;2023-06-05T11:40:53;100970.94;;;27.33
48854;BMP280;34673;52.808;17.856;2023-06-05T11:43:22;100964.19;;;27.42
48854;BMP280;34673;52.808;17.856;2023-06-05T11:45:56;100955.03;;;27.58
48854;BMP280;34673;52.808;17.856;2023-06-05T11:48:24;100965.03;;;27.80
48854;BMP280;34673;52.808;17.856;2023-06-05T11:50:55;100964.81;;;27.58
48854;BMP280;34673;52.808;17.856;2023-06-05T11:53:23;100955.88;;;27.46
48854;BMP280;34673;52.808;17.856;2023-06-05T11:55:51;100959.59;;;27.44
48854;BMP280;34673;52.808;17.856;2023-06-05T11:58:25;100960.88;;;27.51
48854;BMP280;34673;52.808;17.856;2023-06-05T12:03:45;100967.78;;;27.40
48854;BMP280;34673;52.808;17.856;2023-06-05T12:06:15;100959.28;;;27.35
48854;BMP280;34673;52.808;17.856;2023-06-05T12:08:43;100961.84;;;27.50
48854;BMP280;34673;52.808;17.856;2023-06-05T12:11:25;100953.00;;;27.62
48854;BMP280;34673;52.808;17.856;2023-06-05T12:13:54;100947.78;;;27.73
48854;BMP280;34673;52.808;17.856;2023-06-05T12:16:32;100942.44;;;27.73
48854;BMP280;34673;52.808;17.856;2023-06-05T12:19:01;100940.75;;;27.72
48854;BMP280;34673;52.808;17.856;2023-06-05T12:21:45;100940.25;;;27.67
48854;BMP280;34673;52.808;17.856;2023-06-05T12:24:13;100949.38;;;27.63
48854;BMP280;34673;52.808;17.856;2023-06-05T12:27:02;100936.97;;;27.51
48854;BMP280;34673;52.808;17.856;2023-06-05T12:29:35;100940.38;;;27.53
48854;BMP280;34673;52.808;17.856;2023-06-05T12:32:23;100935.91;;;27.40
48854;BMP280;34673;52.808;17.856;2023-06-05T12:34:51;100925.25;;;27.40
48854;BMP280;34673;52.808;17.856;2023-06-05T12:37:23;100925.69;;;27.34
48854;BMP280;34673;52.808;17.856;2023-06-05T12:39:50;100925.72;;;27.47
48854;BMP280;34673;52.808;17.856;2023-06-05T12:42:18;100925.88;;;27.57
48854;BMP280;34673;52.808;17.856;2023-06-05T12:44:45;100919.09;;;27.53
48854;BMP280;34673;52.808;17.856;2023-06-05T12:47:12;100921.00;;;27.51
48854;BMP280;34673;52.808;17.856;2023-06-05T12:49:39;100917.81;;;27.46
48854;BMP280;34673;52.808;17.856;2023-06-05T12:52:08;100914.63;;;27.40
48854;BMP280;34673;52.808;17.856;2023-06-05T12:54:36;100906.44;;;27.44
48854;BMP280;34673;52.808;17.856;2023-06-05T12:57:06;100911.44;;;27.35
48854;BMP280;34673;52.808;17.856;2023-06-05T12:59:38;100897.44;;;27.33
48854;BMP280;34673;52.808;17.856;2023-06-05T13:02:05;100909.75;;;27.34
48854;BMP280;34673;52.808;17.856;2023-06-05T13:04:33;100899.97;;;27.22
48854;BMP280;34673;52.808;17.856;2023-06-05T13:07:02;100898.50;;;27.18
48854;BMP280;34673;52.808;17.856;2023-06-05T13:09:32;100905.09;;;27.25
48854;BMP280;34673;52.808;17.856;2023-06-05T13:11:59;100896.16;;;27.26
48854;BMP280;34673;52.808;17.856;2023-06-05T13:14:27;100887.88;;;27.18
48854;BMP280;34673;52.808;17.856;2023-06-05T13:16:54;100891.47;;;27.17
48854;BMP280;34673;52.808;17.856;2023-06-05T13:19:21;100888.28;;;27.12
48854;BMP280;34673;52.808;17.856;2023-06-05T13:21:49;100877.22;;;27.05
48854;BMP280;34673;52.808;17.856;2023-06-05T13:24:17;100878.81;;;27.08
48854;BMP280;34673;52.808;17.856;2023-06-05T13:26:44;100889.31;;;26.96
48854;BMP280;34673;52.808;17.856;2023-06-05T13:29:11;100880.47;;;26.83
48854;BMP280;34673;52.808;17.856;2023-06-05T13:31:40;100880.56;;;26.69
48854;BMP280;34673;52.808;17.856;2023-06-05T13:34:07;100870.97;;;26.53
48854;BMP280;34673;52.808;17.856;2023-06-05T13:36:35;100879.91;;;26.52
48854;BMP280;34673;52.808;17.856;2023-06-05T13:39:02;100880.94;;;26.50
48854;BMP280;34673;52.808;17.856;2023-06-05T13:41:30;100882.28;;;26.43
48854;BMP280;34673;52.808;17.856;2023-06-05T13:43:58;100880.13;;;26.35
48854;BMP280;34673;52.808;17.856;2023-06-05T13:46:25;100882.03;;;26.33
48854;BMP280;34673;52.808;17.856;2023-06-05T13:48:53;100872.56;;;26.29
48854;BMP280;34673;52.808;17.856;2023-06-05T13:51:21;100876.28;;;26.26
48854;BMP280;34673;52.808;17.856;2023-06-05T13:53:48;100877.72;;;26.18
48854;BMP280;34673;52.808;17.856;2023-06-05T13:56:16;100875.09;;;26.18
48854;BMP280;34673;52.808;17.856;2023-06-05T13:58:43;100875.28;;;26.15
48854;BMP280;34673;52.808;17.856;2023-06-05T14:01:11;100871.88;;;26.13
48854;BMP280;34673;52.808;17.856;2023-06-05T14:03:39;100868.25;;;26.14
48854;BMP280;34673;52.808;17.856;2023-06-05T14:06:07;100863.38;;;26.07
48854;BMP280;34673;52.808;17.856;2023-06-05T14:08:34;100847.88;;;26.01
48854;BMP280;34673;52.808;17.856;2023-06-05T14:11:02;100862.25;;;25.97
48854;BMP280;34673;52.808;17.856;2023-06-05T14:13:29;100855.19;;;25.83
48854;BMP280;34673;52.808;17.856;2023-06-05T14:15:56;100856.78;;;25.86
48854;BMP280;34673;52.808;17.856;2023-06-05T14:18:25;100858.41;;;25.89
48854;BMP280;34673;52.808;17.856;2023-06-05T14:20:52;100856.22;;;25.81
48854;BMP280;34673;52.808;17.856;2023-06-05T14:23:20;100851.50;;;25.72
48854;BMP280;34673;52.808;17.856;2023-06-05T14:25:50;100857.75;;;25.56
48854;BMP280;34673;52.808;17.856;2023-06-05T14:28:17;100852.66;;;25.53
48854;BMP280;34673;52.808;17.856;2023-06-05T14:30:46;100855.22;;;25.55
48854;BMP280;34673;52.808;17.856;2023-06-05T14:33:14;100854.19;;;25.57
48854;BMP280;34673;52.808;17.856;2023-06-05T14:35:43;100845.28;;;25.58